createdAt,value
2022-09-16T00:02:35.782Z,15.93
2022-09-16T00:05:26.804Z,15.98
2022-09-16T00:08:14.634Z,23.92
2022-09-16T00:11:03.590Z,16.92
2022-09-16T00:13:50.706Z,15.30
2022-09-16T00:16:37.907Z,14.30
2022-09-16T00:19:25.142Z,30.13
2022-09-16T00:22:12.771Z,15.07
2022-09-16T00:24:59.964Z,11.98
2022-09-16T00:27:50.155Z,13.95
2022-09-16T00:30:39.426Z,16.38
2022-09-16T00:33:26.673Z,14.15
2022-09-16T00:36:17.161Z,17.85
2022-09-16T00:39:04.501Z,16.42
2022-09-16T00:41:51.889Z,12.27
2022-09-16T00:44:57.143Z,17.20
2022-09-16T00:47:53.477Z,22.40
2022-09-16T00:50:45.713Z,15.02
2022-09-16T00:53:44.224Z,16.95
2022-09-16T00:56:36.023Z,16.38
2022-09-16T00:59:35.817Z,14.90
2022-09-16T01:02:24.147Z,15.98
2022-09-16T01:05:15.692Z,16.63
2022-09-16T01:08:05.753Z,14.95
2022-09-16T01:10:53.168Z,16.75
2022-09-16T01:13:43.471Z,17.25
2022-09-16T01:16:37.527Z,14.13
2022-09-16T01:19:43.429Z,15.52
2022-09-16T01:23:04.724Z,23.27
2022-09-16T01:26:18.129Z,16.50
2022-09-16T01:29:26.955Z,19.67
2022-09-16T01:32:32.038Z,16.05
2022-09-16T01:35:22.497Z,16.63
2022-09-16T01:38:24.519Z,16.55
2022-09-16T01:41:48.597Z,15.03
2022-09-16T01:45:11.129Z,21.88
2022-09-16T01:48:00.937Z,15.70
2022-09-16T01:51:02.308Z,13.88
2022-09-16T01:54:12.578Z,16.50
2022-09-16T01:57:14.545Z,15.45
2022-09-16T02:00:08.503Z,17.83
2022-09-16T02:02:57.995Z,16.63
2022-09-16T02:05:55.314Z,17.23
2022-09-16T02:08:49.756Z,22.38
2022-09-16T02:11:38.454Z,19.50
2022-09-16T02:14:29.954Z,17.20
2022-09-16T02:17:22.176Z,15.52
2022-09-16T02:20:13.365Z,16.85
2022-09-16T02:23:06.136Z,18.35
2022-09-16T02:28:46.176Z,20.80
2022-09-16T02:31:37.662Z,16.80
2022-09-16T02:34:37.276Z,18.92
2022-09-16T02:37:33.869Z,17.40
2022-09-16T02:40:27.198Z,19.75
2022-09-16T02:43:14.619Z,16.00
2022-09-16T02:46:23.219Z,19.30
2022-09-16T02:49:47.527Z,19.17
2022-09-16T02:52:49.676Z,19.58
2022-09-16T02:56:01.057Z,21.88
2022-09-16T02:58:48.336Z,17.13
2022-09-16T03:01:41.736Z,18.05
2022-09-16T03:04:31.187Z,19.90
2022-09-16T03:07:20.637Z,20.85
2022-09-16T03:10:12.171Z,18.75
2022-09-16T03:13:12.510Z,15.10
2022-09-16T03:16:23.869Z,21.63
2022-09-16T03:19:36.864Z,22.95
2022-09-16T03:22:32.846Z,19.63
2022-09-16T03:25:49.083Z,16.70
2022-09-16T03:28:47.781Z,21.27
2022-09-16T03:31:38.929Z,17.75
2022-09-16T03:34:47.122Z,12.57
2022-09-16T03:37:37.231Z,12.98
2022-09-16T03:40:26.829Z,20.88
2022-09-16T03:43:17.805Z,12.00
2022-09-16T03:46:10.947Z,15.10
2022-09-16T03:48:58.906Z,14.80
2022-09-16T03:51:46.372Z,16.60
2022-09-16T03:54:34.222Z,16.27
2022-09-16T03:57:21.495Z,17.20
2022-09-16T04:00:09.609Z,16.60
2022-09-16T04:02:56.822Z,15.98
2022-09-16T04:05:44.411Z,15.38
2022-09-16T04:08:32.035Z,13.75
2022-09-16T04:11:19.598Z,16.13
2022-09-16T04:14:07.476Z,24.98
2022-09-16T04:16:55.447Z,16.15
2022-09-16T04:19:42.496Z,21.75
2022-09-16T04:22:30.776Z,23.70
2022-09-16T04:25:17.779Z,21.77
2022-09-16T04:28:14.770Z,24.23
2022-09-16T04:31:12.216Z,22.35
2022-09-16T04:34:02.321Z,17.52
2022-09-16T04:36:52.131Z,20.25
2022-09-16T04:39:39.218Z,19.77
2022-09-16T04:42:26.244Z,21.42
2022-09-16T04:45:17.677Z,18.65
2022-09-16T04:48:04.708Z,21.27
2022-09-16T04:50:55.130Z,22.52
2022-09-16T04:53:44.749Z,21.17
2022-09-16T04:56:33.106Z,19.42
2022-09-16T04:59:20.386Z,21.52
2022-09-16T05:02:07.659Z,20.55
2022-09-16T05:04:54.785Z,21.95
2022-09-16T05:07:41.865Z,18.15
2022-09-16T05:10:29.047Z,17.35
2022-09-16T05:13:18.356Z,16.13
2022-09-16T05:16:22.125Z,21.73
2022-09-16T05:19:16.116Z,18.70
2022-09-16T05:22:07.138Z,20.05
2022-09-16T05:24:54.498Z,18.50
2022-09-16T05:27:41.569Z,18.58
2022-09-16T05:30:28.543Z,24.17
2022-09-16T05:33:15.710Z,24.02
2022-09-16T05:36:08.113Z,25.52
2022-09-16T05:39:20.805Z,36.22
2022-09-16T05:42:04.782Z,32.58
2022-09-16T05:44:51.759Z,25.85
2022-09-16T05:47:39.269Z,21.92
2022-09-16T05:50:28.983Z,17.95
2022-09-16T05:53:17.302Z,21.27
2022-09-16T05:56:10.565Z,29.33
2022-09-16T05:59:02.134Z,26.88
2022-09-16T06:01:50.880Z,24.23
2022-09-16T06:04:40.406Z,24.08
2022-09-16T06:07:32.539Z,20.90
2022-09-16T06:10:19.587Z,20.67
2022-09-16T06:13:27.520Z,27.95
2022-09-16T06:16:51.383Z,20.33
2022-09-16T06:20:01.601Z,20.27
2022-09-16T06:22:49.244Z,18.35
2022-09-16T06:25:40.931Z,20.13
2022-09-16T06:28:31.061Z,26.88
2022-09-16T06:31:24.439Z,29.02
2022-09-16T06:34:18.457Z,22.02
2022-09-16T06:37:07.732Z,24.45
2022-09-16T06:40:00.796Z,27.73
2022-09-16T06:43:08.105Z,30.50
2022-09-16T06:46:08.888Z,26.98
2022-09-16T06:49:05.812Z,29.08
2022-09-16T06:52:33.640Z,23.70
2022-09-16T06:59:44.389Z,24.27
2022-09-16T07:02:45.711Z,27.63
2022-09-16T07:05:32.954Z,19.52
2022-09-16T07:08:20.232Z,24.33
2022-09-16T07:11:15.272Z,26.70
2022-09-16T07:14:05.175Z,22.15
2022-09-16T07:16:56.079Z,31.45
2022-09-16T07:19:44.967Z,34.38
2022-09-16T07:22:32.535Z,27.27
2022-09-16T07:25:19.614Z,27.85
2022-09-16T07:28:06.962Z,21.55
2022-09-16T07:30:55.119Z,30.65
2022-09-16T07:33:49.734Z,23.83
2022-09-16T07:36:44.895Z,27.00
2022-09-16T07:40:10.183Z,26.55
2022-09-16T07:43:21.001Z,33.33
2022-09-16T07:46:10.731Z,29.83
2022-09-16T07:49:02.559Z,33.25
2022-09-16T07:51:52.401Z,24.33
2022-09-16T07:54:44.941Z,22.55
2022-09-16T07:57:32.301Z,22.02
2022-09-16T08:00:27.835Z,30.95
2022-09-16T08:03:19.537Z,24.00
2022-09-16T08:06:18.704Z,21.95
2022-09-16T08:09:21.038Z,26.10
2022-09-16T08:12:15.616Z,21.45
2022-09-16T08:15:13.303Z,25.95
2022-09-16T08:18:10.361Z,25.77
2022-09-16T08:21:02.955Z,25.77
2022-09-16T08:23:53.468Z,25.55
2022-09-16T08:26:41.077Z,25.85
2022-09-16T08:29:30.262Z,23.20
2022-09-16T08:32:23.209Z,26.95
2022-09-16T08:35:12.428Z,19.48
2022-09-16T08:38:00.958Z,13.45
2022-09-16T08:40:50.504Z,17.23
2022-09-16T08:43:49.531Z,23.20
2022-09-16T08:46:48.152Z,15.07
2022-09-16T08:49:46.523Z,15.05
2022-09-16T08:52:38.616Z,17.45
2022-09-16T08:55:41.270Z,19.23
2022-09-16T08:58:45.942Z,17.40
2022-09-16T09:01:50.558Z,22.33
2022-09-16T09:04:40.280Z,17.52
2022-09-16T09:08:10.262Z,15.20
2022-09-16T09:11:15.670Z,18.52
2022-09-16T09:14:27.838Z,22.80
2022-09-16T09:17:15.200Z,16.60
2022-09-16T09:20:07.842Z,18.02
2022-09-16T09:23:16.268Z,16.80
2022-09-16T09:26:36.675Z,18.17
2022-09-16T09:29:29.868Z,17.50
2022-09-16T09:32:55.044Z,15.20
2022-09-16T09:36:20.225Z,18.80
2022-09-16T09:39:28.621Z,21.52
2022-09-16T09:42:50.236Z,12.93
2022-09-16T09:45:45.387Z,11.55
2022-09-16T09:48:45.441Z,10.80
2022-09-16T09:51:38.091Z,11.80
2022-09-16T09:54:35.508Z,16.60
2022-09-16T09:57:39.777Z,10.00
2022-09-16T10:00:26.998Z,10.15
2022-09-16T10:03:19.250Z,8.20
2022-09-16T10:06:10.515Z,18.20
2022-09-16T10:08:59.012Z,9.98
2022-09-16T10:11:52.585Z,5.40
2022-09-16T10:14:39.653Z,8.88
2022-09-16T10:17:30.294Z,5.28
2022-09-16T10:20:44.967Z,7.65
2022-09-16T10:23:33.030Z,6.68
2022-09-16T10:26:22.994Z,6.90
2022-09-16T10:29:17.674Z,9.70
2022-09-16T10:32:09.202Z,12.18
2022-09-16T10:34:57.254Z,9.10
2022-09-16T10:38:13.030Z,7.00
2022-09-16T10:41:32.790Z,6.55
2022-09-16T10:44:29.104Z,5.75
2022-09-16T10:47:20.585Z,4.15
2022-09-16T10:50:18.244Z,7.65
2022-09-16T10:53:28.793Z,6.22
2022-09-16T10:56:24.728Z,8.05
2022-09-16T10:59:17.586Z,5.82
2022-09-16T11:02:30.221Z,9.15
2022-09-16T11:05:25.544Z,5.25
2022-09-16T11:08:32.230Z,5.80
2022-09-16T11:11:50.571Z,7.25
2022-09-16T11:14:44.199Z,9.45
2022-09-16T11:18:02.074Z,8.82
2022-09-16T11:20:54.096Z,8.25
2022-09-16T11:24:27.382Z,10.25
2022-09-16T11:27:39.391Z,5.93
2022-09-16T11:30:36.055Z,9.18
2022-09-16T11:33:59.485Z,9.88
2022-09-16T11:39:47.000Z,5.68
2022-09-16T11:42:35.264Z,10.60
2022-09-16T11:45:51.259Z,5.43
2022-09-16T11:48:53.240Z,7.47
2022-09-16T11:52:10.793Z,5.37
2022-09-16T11:55:21.408Z,5.28
2022-09-16T11:58:24.456Z,5.75
2022-09-16T12:01:34.398Z,6.65
2022-09-16T12:08:38.362Z,5.78
2022-09-16T12:12:20.685Z,6.30
2022-09-16T12:15:21.418Z,5.40
2022-09-16T12:18:58.049Z,2.92
2022-09-16T12:21:57.407Z,5.50
2022-09-16T12:25:06.721Z,4.57
2022-09-16T12:28:28.020Z,6.57
2022-09-16T12:31:34.047Z,8.30
2022-09-16T12:34:44.349Z,3.58
2022-09-16T12:37:39.331Z,7.15
2022-09-16T12:40:45.133Z,5.80
2022-09-16T12:43:47.024Z,2.20
2022-09-16T12:46:40.274Z,7.20
2022-09-16T12:50:16.819Z,6.15
2022-09-16T12:53:50.619Z,12.05
2022-09-16T12:57:06.197Z,6.40
2022-09-16T13:00:08.974Z,7.55
2022-09-16T13:05:49.258Z,10.35
2022-09-16T13:08:37.012Z,9.75
2022-09-16T13:12:16.414Z,7.40
2022-09-16T13:14:47.439Z,7.70
2022-09-16T13:17:44.609Z,6.07
2022-09-16T13:20:35.964Z,9.73
2022-09-16T13:23:34.165Z,6.88
2022-09-16T13:26:21.953Z,4.00
2022-09-16T13:29:34.209Z,2.45
2022-09-16T13:32:38.115Z,1.90
2022-09-16T13:35:31.546Z,4.28
2022-09-16T13:38:18.717Z,4.35
2022-09-16T13:41:06.719Z,6.18
2022-09-16T13:43:54.267Z,2.95
2022-09-16T13:46:41.501Z,3.53
2022-09-16T13:49:33.656Z,7.28
2022-09-16T13:52:43.062Z,3.13
2022-09-16T13:55:33.278Z,2.67
2022-09-16T13:58:47.779Z,5.68
2022-09-16T14:02:00.362Z,4.97
2022-09-16T14:05:21.265Z,4.53
2022-09-16T14:08:23.235Z,5.05
2022-09-16T14:11:49.655Z,7.53
2022-09-16T14:14:53.164Z,4.78
2022-09-16T14:17:51.338Z,5.68
2022-09-16T14:20:39.839Z,4.88
2022-09-16T14:23:28.311Z,4.18
2022-09-16T14:26:23.730Z,2.58
2022-09-16T14:29:12.728Z,3.08
2022-09-16T14:32:03.984Z,7.38
2022-09-16T14:34:54.015Z,5.10
2022-09-16T14:37:50.012Z,3.13
2022-09-16T14:41:23.294Z,3.60
2022-09-16T14:44:47.745Z,4.15
2022-09-16T14:52:45.961Z,7.10
2022-09-16T14:55:35.456Z,3.55
2022-09-16T14:58:24.832Z,4.80
2022-09-16T15:01:25.034Z,16.25
2022-09-16T15:04:21.106Z,4.00
2022-09-16T15:07:14.909Z,7.15
2022-09-16T15:10:05.785Z,7.43
2022-09-16T15:12:57.187Z,3.05
2022-09-16T15:15:49.537Z,8.00
2022-09-16T15:18:38.911Z,4.22
2022-09-16T15:21:32.828Z,9.55
2022-09-16T15:24:31.590Z,3.63
2022-09-16T15:27:30.110Z,3.78
2022-09-16T15:30:26.059Z,3.15
2022-09-16T15:33:40.872Z,3.38
2022-09-16T15:36:45.024Z,5.07
2022-09-16T15:39:38.976Z,4.10
2022-09-16T15:42:26.110Z,5.07
2022-09-16T15:45:20.324Z,4.78
2022-09-16T15:48:20.863Z,6.20
2022-09-16T15:51:30.812Z,6.50
2022-09-16T15:54:29.180Z,14.15
2022-09-16T15:57:37.054Z,9.10
2022-09-16T16:00:24.591Z,4.97
2022-09-16T16:03:20.847Z,8.07
2022-09-16T16:06:08.025Z,5.22
2022-09-16T16:08:58.161Z,3.47
2022-09-16T16:11:45.242Z,4.72
2022-09-16T16:14:33.989Z,9.00
2022-09-16T16:17:24.188Z,8.60
2022-09-16T16:20:13.386Z,4.57
2022-09-16T16:23:04.001Z,4.70
2022-09-16T16:25:51.054Z,3.40
2022-09-16T16:28:38.751Z,5.38
2022-09-16T16:31:28.297Z,3.90
2022-09-16T16:34:18.040Z,4.70
2022-09-16T16:37:07.366Z,6.35
2022-09-16T16:39:56.695Z,8.20
2022-09-16T16:42:44.467Z,6.05
2022-09-16T16:45:31.811Z,4.35
2022-09-16T16:48:18.946Z,3.67
2022-09-16T16:51:08.484Z,6.43
2022-09-16T16:53:56.945Z,5.57
2022-09-16T16:56:45.044Z,8.15
2022-09-16T16:59:34.340Z,4.03
2022-09-16T17:02:21.610Z,8.48
2022-09-16T17:05:11.497Z,4.97
2022-09-16T17:07:58.785Z,6.85
2022-09-16T17:10:49.107Z,6.47
2022-09-16T17:13:41.476Z,8.18
2022-09-16T17:16:29.705Z,4.82
2022-09-16T17:19:18.602Z,5.97
2022-09-16T17:22:05.744Z,6.43
2022-09-16T17:24:59.646Z,6.05
2022-09-16T17:27:46.862Z,6.00
2022-09-16T17:30:34.216Z,6.90
2022-09-16T17:33:21.698Z,6.60
2022-09-16T17:36:10.260Z,6.88
2022-09-16T17:38:59.784Z,9.35
2022-09-16T17:41:48.816Z,2.72
2022-09-16T17:44:35.884Z,8.98
2022-09-16T17:47:25.800Z,2.90
2022-09-16T17:50:14.104Z,7.30
2022-09-16T17:53:01.120Z,4.30
2022-09-16T17:55:48.684Z,3.28
2022-09-16T17:58:39.589Z,4.95
2022-09-16T18:01:26.788Z,6.00
2022-09-16T18:04:16.350Z,5.75
2022-09-16T18:07:03.710Z,3.55
2022-09-16T18:09:50.978Z,2.10
2022-09-16T18:12:38.104Z,6.38
2022-09-16T18:15:27.967Z,3.83
2022-09-16T18:18:17.163Z,2.78
2022-09-16T18:21:09.085Z,2.97
2022-09-16T18:24:02.974Z,4.73
2022-09-16T18:26:50.392Z,2.97
2022-09-16T18:29:37.590Z,5.22
2022-09-16T18:32:24.760Z,7.10
2022-09-16T18:35:12.984Z,4.93
2022-09-16T18:38:02.284Z,4.03
2022-09-16T18:40:49.362Z,6.55
2022-09-16T18:43:38.265Z,3.05
2022-09-16T18:46:30.971Z,2.90
2022-09-16T18:49:20.646Z,3.05
2022-09-16T18:52:08.544Z,4.05
2022-09-16T18:54:58.338Z,4.47
2022-09-16T18:57:48.734Z,4.38
2022-09-16T19:00:36.706Z,4.22
2022-09-16T19:03:24.063Z,3.20
2022-09-16T19:06:16.107Z,4.05
2022-09-16T19:09:06.722Z,5.80
2022-09-16T19:11:54.913Z,2.65
2022-09-16T19:14:42.113Z,1.33
2022-09-16T19:17:29.722Z,1.98
2022-09-16T19:20:17.518Z,3.92
2022-09-16T19:23:04.733Z,2.42
2022-09-16T19:25:52.590Z,2.78
2022-09-16T19:28:42.707Z,1.58
2022-09-16T19:31:31.459Z,3.67
2022-09-16T19:34:19.122Z,5.35
2022-09-16T19:37:06.315Z,7.15
2022-09-16T19:39:53.762Z,4.30
2022-09-16T19:42:40.889Z,3.45
2022-09-16T19:45:28.215Z,4.07
2022-09-16T19:48:15.442Z,4.18
2022-09-16T19:51:05.424Z,4.97
2022-09-16T19:53:53.658Z,4.57
2022-09-16T19:56:41.862Z,1.52
2022-09-16T19:59:29.290Z,2.38
2022-09-16T20:02:16.744Z,1.33
2022-09-16T20:05:09.093Z,3.45
2022-09-16T20:07:56.683Z,8.23
2022-09-16T20:10:43.732Z,10.77
2022-09-16T20:13:31.604Z,1.58
2022-09-16T20:16:20.184Z,1.05
2022-09-16T20:19:18.097Z,2.65
2022-09-16T20:22:05.647Z,1.15
2022-09-16T20:25:12.155Z,0.85
2022-09-16T20:28:00.388Z,2.25
2022-09-16T20:30:50.294Z,2.33
2022-09-16T20:33:38.449Z,1.60
2022-09-16T20:36:35.063Z,2.42
2022-09-16T20:39:24.761Z,2.60
2022-09-16T20:42:12.892Z,2.45
2022-09-16T20:45:00.025Z,1.23
2022-09-16T20:47:52.191Z,3.35
2022-09-16T20:50:41.987Z,3.08
2022-09-16T20:53:29.070Z,2.05
2022-09-16T20:56:16.855Z,1.20
2022-09-16T20:59:04.099Z,3.17
2022-09-16T21:01:55.895Z,1.25
2022-09-16T21:04:43.371Z,4.00
2022-09-16T21:07:30.995Z,1.42
2022-09-16T21:10:19.454Z,2.05
2022-09-16T21:13:06.656Z,3.25
2022-09-16T21:15:58.364Z,1.33
2022-09-16T21:18:46.100Z,3.08
2022-09-16T21:21:33.697Z,0.90
2022-09-16T21:24:20.737Z,1.25
2022-09-16T21:27:08.443Z,3.38
2022-09-16T21:29:55.871Z,1.15
2022-09-16T21:32:43.479Z,0.95
2022-09-16T21:35:30.813Z,2.92
2022-09-16T21:38:18.357Z,1.33
2022-09-16T21:41:13.710Z,0.90
2022-09-16T21:44:04.136Z,1.63
2022-09-16T21:46:53.444Z,4.03
2022-09-16T21:49:42.940Z,1.42
2022-09-16T21:52:32.761Z,2.75
2022-09-16T21:55:19.826Z,1.55
2022-09-16T21:58:08.308Z,2.05
2022-09-16T22:01:22.112Z,1.08
2022-09-16T22:04:15.228Z,1.42
2022-09-16T22:07:04.868Z,1.90
2022-09-16T22:09:52.452Z,1.73
2022-09-16T22:12:39.534Z,2.53
2022-09-16T22:15:26.904Z,1.35
2022-09-16T22:18:16.760Z,2.03
2022-09-16T22:21:12.370Z,4.45
2022-09-16T22:24:00.560Z,1.77
2022-09-16T22:26:49.632Z,2.28
2022-09-16T22:29:36.681Z,1.73
2022-09-16T22:32:23.735Z,1.92
2022-09-16T22:35:10.939Z,2.28
2022-09-16T22:37:58.022Z,1.80
2022-09-16T22:40:45.397Z,1.10
2022-09-16T22:43:43.500Z,1.95
2022-09-16T22:46:36.492Z,1.60
2022-09-16T22:49:23.670Z,9.93
2022-09-16T22:52:10.734Z,1.45
2022-09-16T22:54:58.292Z,3.60
2022-09-16T22:57:45.381Z,1.88
2022-09-16T23:00:32.585Z,1.40
2022-09-16T23:03:25.618Z,3.88
2022-09-16T23:06:16.186Z,4.40
2022-09-16T23:09:04.446Z,1.15
2022-09-16T23:11:51.835Z,1.70
2022-09-16T23:14:42.095Z,1.77
2022-09-16T23:17:31.220Z,4.07
2022-09-16T23:20:18.347Z,8.30
2022-09-16T23:23:05.739Z,3.97
2022-09-16T23:25:54.843Z,3.60
2022-09-16T23:28:42.754Z,4.60
2022-09-16T23:31:35.624Z,3.20
2022-09-16T23:34:23.067Z,2.05
2022-09-16T23:37:12.524Z,1.30
2022-09-16T23:40:00.340Z,6.40
2022-09-16T23:42:47.442Z,3.90
2022-09-16T23:45:35.394Z,2.70
2022-09-16T23:48:22.454Z,2.47
2022-09-16T23:51:09.962Z,5.03
2022-09-16T23:53:58.494Z,4.07
2022-09-16T23:56:45.559Z,2.38
2022-09-16T23:59:32.736Z,3.65
